CheckWX is a tool to help pilots better visualize weather data.  It is not intended as a substitute for an official pre-flight weather briefing.

12:21:00 UTC

KAIT METAR
Aitkin Municipal-Steve Kurtz Field Airport
Aitkin, Minnesota, USA
Current

25 mins ago

KAIT 161156Z AUTO 00000KT 10SM CLR 18/17 A2986 RMK AO2
Observed
Jul-16 @ 11:56 UTC
Visibility
10 SM
Flight Rules
VFR
Cloud Levels
  • Clear skies
Temperature
18°C / 64°F
Dewpoint
17°C / 63°F
Humidity
94%
Altimeter
29.86" Hg
Pressure
1011.22 hPa
Previous

45 mins ago

KAIT 161136Z AUTO 00000KT 7SM CLR 17/16 A2985 RMK AO2
Observed
Jul-16 @ 11:36 UTC
Visibility
7 SM
Flight Rules
VFR
Cloud Levels
  • Clear skies
Temperature
17°C / 63°F
Dewpoint
16°C / 61°F
Humidity
94%
Altimeter
29.85" Hg
Pressure
1010.82 hPa
Previous

1 hour ago

KAIT 161116Z AUTO 00000KT 1/4SM FG BKN001 17/16 A2984 RMK AO2
Observed
Jul-16 @ 11:16 UTC
Visibility
1/4 SM
Flight Rules
LIFR
Conditions
Fog
Cloud Levels
  • Broken at 100' AGL
Temperature
17°C / 63°F
Dewpoint
16°C / 61°F
Humidity
94%
Altimeter
29.84" Hg
Pressure
1010.52 hPa